This is the latest recevied weather packets stored in our database for station/object KA7KDX-4. If no packets are shown the sender has not sent any weather packets the latest 10 day(s).
| Time | Temp. | Humidity | Pressure | Rain* | Wind** | Luminosity | Snow |
|---|---|---|---|---|---|---|---|
| 1778076605 | 10.56° C | 47% | 1016.3 hPa | 0 mm | - | - | - |
| 1778076306 | 10.56° C | 50% | 1016.4 hPa | 0 mm | - | - | - |
| 1778076006 | 10° C | 51% | 1016.5 hPa | 0 mm | - | - | - |
| 1778075706 | 10° C | 53% | 1016.6 hPa | 0 mm | - | - | - |
| 1778075406 | 9.44° C | 58% | 1016.7 hPa | 0 mm | - | - | - |
| 1778075106 | 9.44° C | 61% | 1016.8 hPa | 0 mm | - | - | - |
| 1778074805 | 9.44° C | 63% | 1016.8 hPa | 0 mm | - | - | - |
| 1778074505 | 9.44° C | 63% | 1016.8 hPa | 0 mm | - | - | - |
| 1778074205 | 8.89° C | 64% | 1016.7 hPa | 0 mm | - | - | - |
| 1778073905 | 8.89° C | 64% | 1016.7 hPa | 0 mm | - | - | - |
| 1778073605 | 8.89° C | 66% | 1016.8 hPa | 0 mm | - | - | - |
| 1778073306 | 8.89° C | 67% | 1016.7 hPa | 0 mm | - | - | - |
| 1778073006 | 8.89° C | 68% | 1016.7 hPa | 0 mm | - | - | - |
| 1778072706 | 8.33° C | 68% | 1016.6 hPa | 0 mm | - | - | - |
| 1778072406 | 8.33° C | 67% | 1016.4 hPa | 0 mm | - | - | - |
| 1778072105 | 8.33° C | 67% | 1016.3 hPa | 0 mm | - | - | - |
| 1778071806 | 8.33° C | 67% | 1016.3 hPa | 0 mm | - | - | - |
| 1778071505 | 8.33° C | 68% | 1016.2 hPa | 0 mm | - | - | - |
| 1778071205 | 8.33° C | 68% | 1016.2 hPa | 0 mm | - | - | - |
| 1778070905 | 8.33° C | 69% | 1016.2 hPa | 0 mm | - | - | - |
| 1778070605 | 8.33° C | 70% | 1016.1 hPa | 0 mm | - | - | - |
| 1778070306 | 8.33° C | 70% | 1016 hPa | 0 mm | - | - | - |
| 1778070006 | 8.33° C | 70% | 1016 hPa | 0 mm | - | - | - |
| 1778069706 | 8.33° C | 71% | 1015.9 hPa | 0 mm | - | - | - |
| 1778069406 | 8.33° C | 71% | 1015.8 hPa | 0 mm | - | - | - |
* Rain latest hour (hover to see other rain measurements)
** Current wind speed in m/s (hover to see current wind gust speed)